Genoa, Arkansas
Current Conditions -  °F | °C
As of 1:53 PM on Tuesday 21 Oct 2014 (Local Time) from KTXK Reporting Station
Clear Clear  
Wind Chill: 78°   Ceiling: Unl
Heat Index: 80°   Visibility: 10mi
Dew Point: 61°   Wind: 3mph
Humidity: 56%   Direction: 200°SSW
Pressure: 30.06"   Gusts: NA
Location:  33.38°N, 93.91°W
Report Text: KTXK 211853Z 20003KT 10SM CLR 26/16 A3006 RMK AO2 SLP177 T02560161
Loading
Personal Weather Stations






























Interactive Weather Map New forecast layout! Learn more

10-Day Weather Forecast

Advertisements
Track Severe Weather on mobile